sensor_id;sensor_type;location;lat;lon;timestamp;P1;durP1;ratioP1;P2;durP2;ratioP2
6306;SDS011;3186;54.062;9.962;2022-09-09T00:00:18;10.90;;;9.80;;
6306;SDS011;3186;54.062;9.962;2022-09-09T00:02:47;12.70;;;11.40;;
6306;SDS011;3186;54.062;9.962;2022-09-09T00:05:38;11.60;;;9.97;;
6306;SDS011;3186;54.062;9.962;2022-09-09T00:11:36;11.87;;;10.53;;
6306;SDS011;3186;54.062;9.962;2022-09-09T00:14:34;13.30;;;11.90;;
6306;SDS011;3186;54.062;9.962;2022-09-09T00:20:00;12.53;;;10.23;;
6306;SDS011;3186;54.062;9.962;2022-09-09T00:22:27;13.70;;;12.27;;
6306;SDS011;3186;54.062;9.962;2022-09-09T00:25:12;11.40;;;10.20;;
6306;SDS011;3186;54.062;9.962;2022-09-09T00:27:49;13.43;;;11.30;;
6306;SDS011;3186;54.062;9.962;2022-09-09T00:30:20;13.37;;;12.03;;
6306;SDS011;3186;54.062;9.962;2022-09-09T00:32:54;14.03;;;12.40;;
6306;SDS011;3186;54.062;9.962;2022-09-09T00:35:25;13.90;;;11.60;;
6306;SDS011;3186;54.062;9.962;2022-09-09T00:38:03;13.97;;;11.80;;
6306;SDS011;3186;54.062;9.962;2022-09-09T00:40:56;14.03;;;12.30;;
6306;SDS011;3186;54.062;9.962;2022-09-09T00:43:31;13.63;;;12.23;;
6306;SDS011;3186;54.062;9.962;2022-09-09T00:46:21;18.47;;;14.67;;
6306;SDS011;3186;54.062;9.962;2022-09-09T00:48:54;14.30;;;12.37;;
6306;SDS011;3186;54.062;9.962;2022-09-09T00:54:32;15.10;;;12.93;;
6306;SDS011;3186;54.062;9.962;2022-09-09T00:57:23;18.90;;;14.40;;
6306;SDS011;3186;54.062;9.962;2022-09-09T01:05:29;17.33;;;13.80;;
6306;SDS011;3186;54.062;9.962;2022-09-09T01:08:00;15.77;;;13.50;;
6306;SDS011;3186;54.062;9.962;2022-09-09T01:13:26;16.27;;;13.20;;
6306;SDS011;3186;54.062;9.962;2022-09-09T01:16:03;23.63;;;18.67;;
6306;SDS011;3186;54.062;9.962;2022-09-09T01:18:37;28.20;;;21.40;;
6306;SDS011;3186;54.062;9.962;2022-09-09T01:27:10;22.27;;;18.00;;
6306;SDS011;3186;54.062;9.962;2022-09-09T01:29:38;22.03;;;15.37;;
6306;SDS011;3186;54.062;9.962;2022-09-09T01:35:15;19.10;;;15.57;;
6306;SDS011;3186;54.062;9.962;2022-09-09T01:37:44;22.03;;;17.20;;
6306;SDS011;3186;54.062;9.962;2022-09-09T01:40:10;18.50;;;14.10;;
6306;SDS011;3186;54.062;9.962;2022-09-09T01:42:37;18.10;;;14.17;;
6306;SDS011;3186;54.062;9.962;2022-09-09T01:45:03;19.13;;;14.70;;
6306;SDS011;3186;54.062;9.962;2022-09-09T01:47:30;33.37;;;22.73;;
6306;SDS011;3186;54.062;9.962;2022-09-09T01:50:07;27.17;;;20.13;;
6306;SDS011;3186;54.062;9.962;2022-09-09T01:52:36;26.37;;;21.43;;
6306;SDS011;3186;54.062;9.962;2022-09-09T01:55:06;17.00;;;14.43;;
6306;SDS011;3186;54.062;9.962;2022-09-09T01:57:43;17.73;;;14.10;;
6306;SDS011;3186;54.062;9.962;2022-09-09T02:00:17;25.13;;;19.33;;
6306;SDS011;3186;54.062;9.962;2022-09-09T02:03:13;26.33;;;20.47;;
6306;SDS011;3186;54.062;9.962;2022-09-09T02:08:45;20.73;;;16.40;;
6306;SDS011;3186;54.062;9.962;2022-09-09T02:11:15;27.83;;;18.93;;
6306;SDS011;3186;54.062;9.962;2022-09-09T02:13:50;17.83;;;15.03;;
6306;SDS011;3186;54.062;9.962;2022-09-09T02:16:38;21.47;;;15.57;;
6306;SDS011;3186;54.062;9.962;2022-09-09T02:19:08;21.70;;;17.17;;
6306;SDS011;3186;54.062;9.962;2022-09-09T02:21:57;18.50;;;15.47;;
6306;SDS011;3186;54.062;9.962;2022-09-09T02:24:26;19.97;;;16.00;;
6306;SDS011;3186;54.062;9.962;2022-09-09T02:27:06;20.80;;;16.60;;
6306;SDS011;3186;54.062;9.962;2022-09-09T02:29:35;20.50;;;15.60;;
6306;SDS011;3186;54.062;9.962;2022-09-09T02:32:07;21.97;;;16.20;;
6306;SDS011;3186;54.062;9.962;2022-09-09T02:34:43;29.23;;;21.47;;
6306;SDS011;3186;54.062;9.962;2022-09-09T02:37:13;20.57;;;16.33;;
6306;SDS011;3186;54.062;9.962;2022-09-09T02:39:46;22.27;;;16.87;;
6306;SDS011;3186;54.062;9.962;2022-09-09T02:42:15;21.30;;;16.97;;
6306;SDS011;3186;54.062;9.962;2022-09-09T02:44:43;20.60;;;16.00;;
6306;SDS011;3186;54.062;9.962;2022-09-09T02:50:07;20.40;;;16.13;;
6306;SDS011;3186;54.062;9.962;2022-09-09T02:58:03;23.93;;;17.93;;
6306;SDS011;3186;54.062;9.962;2022-09-09T03:00:32;22.63;;;17.13;;
6306;SDS011;3186;54.062;9.962;2022-09-09T03:03:02;30.47;;;20.87;;
6306;SDS011;3186;54.062;9.962;2022-09-09T03:05:31;28.20;;;19.47;;
6306;SDS011;3186;54.062;9.962;2022-09-09T03:07:58;23.87;;;17.43;;
6306;SDS011;3186;54.062;9.962;2022-09-09T03:10:24;24.43;;;18.33;;
6306;SDS011;3186;54.062;9.962;2022-09-09T03:12:50;26.23;;;19.60;;
6306;SDS011;3186;54.062;9.962;2022-09-09T03:15:16;24.23;;;17.60;;
6306;SDS011;3186;54.062;9.962;2022-09-09T03:17:43;22.17;;;17.00;;
6306;SDS011;3186;54.062;9.962;2022-09-09T03:20:09;25.47;;;18.33;;
6306;SDS011;3186;54.062;9.962;2022-09-09T03:22:36;25.80;;;19.23;;
6306;SDS011;3186;54.062;9.962;2022-09-09T03:25:02;23.77;;;17.03;;
6306;SDS011;3186;54.062;9.962;2022-09-09T03:27:29;27.07;;;18.90;;
6306;SDS011;3186;54.062;9.962;2022-09-09T03:29:56;22.73;;;17.30;;
6306;SDS011;3186;54.062;9.962;2022-09-09T03:32:24;27.20;;;18.40;;
6306;SDS011;3186;54.062;9.962;2022-09-09T03:34:52;21.70;;;16.73;;
6306;SDS011;3186;54.062;9.962;2022-09-09T03:37:18;24.33;;;18.50;;
6306;SDS011;3186;54.062;9.962;2022-09-09T03:39:45;26.37;;;19.43;;
6306;SDS011;3186;54.062;9.962;2022-09-09T03:42:12;23.23;;;17.10;;
6306;SDS011;3186;54.062;9.962;2022-09-09T03:44:40;22.27;;;17.70;;
6306;SDS011;3186;54.062;9.962;2022-09-09T03:47:07;29.57;;;20.17;;
6306;SDS011;3186;54.062;9.962;2022-09-09T03:49:33;25.03;;;18.90;;
6306;SDS011;3186;54.062;9.962;2022-09-09T03:52:00;24.47;;;18.27;;
6306;SDS011;3186;54.062;9.962;2022-09-09T03:54:26;26.07;;;18.53;;
6306;SDS011;3186;54.062;9.962;2022-09-09T03:56:52;25.93;;;19.63;;
6306;SDS011;3186;54.062;9.962;2022-09-09T03:59:21;27.70;;;20.13;;
6306;SDS011;3186;54.062;9.962;2022-09-09T04:01:49;27.83;;;20.37;;
6306;SDS011;3186;54.062;9.962;2022-09-09T04:04:15;25.40;;;19.17;;
6306;SDS011;3186;54.062;9.962;2022-09-09T04:06:41;25.67;;;18.97;;
6306;SDS011;3186;54.062;9.962;2022-09-09T04:09:07;25.33;;;19.03;;
6306;SDS011;3186;54.062;9.962;2022-09-09T04:11:33;31.03;;;22.17;;
6306;SDS011;3186;54.062;9.962;2022-09-09T04:13:59;25.37;;;19.90;;
6306;SDS011;3186;54.062;9.962;2022-09-09T04:16:28;27.37;;;18.97;;
6306;SDS011;3186;54.062;9.962;2022-09-09T04:18:54;24.20;;;18.67;;
6306;SDS011;3186;54.062;9.962;2022-09-09T04:21:21;21.47;;;18.13;;
6306;SDS011;3186;54.062;9.962;2022-09-09T04:23:47;24.60;;;17.47;;
6306;SDS011;3186;54.062;9.962;2022-09-09T04:26:12;23.53;;;17.83;;
6306;SDS011;3186;54.062;9.962;2022-09-09T04:28:39;40.47;;;26.33;;
6306;SDS011;3186;54.062;9.962;2022-09-09T04:31:15;35.87;;;23.60;;
6306;SDS011;3186;54.062;9.962;2022-09-09T04:33:44;32.73;;;22.97;;
6306;SDS011;3186;54.062;9.962;2022-09-09T04:36:10;34.77;;;25.63;;
6306;SDS011;3186;54.062;9.962;2022-09-09T04:38:36;30.00;;;22.03;;
6306;SDS011;3186;54.062;9.962;2022-09-09T04:41:02;33.10;;;23.47;;
6306;SDS011;3186;54.062;9.962;2022-09-09T04:43:33;35.77;;;26.00;;
6306;SDS011;3186;54.062;9.962;2022-09-09T04:46:01;29.50;;;22.00;;
6306;SDS011;3186;54.062;9.962;2022-09-09T04:48:29;32.87;;;24.60;;
6306;SDS011;3186;54.062;9.962;2022-09-09T04:50:57;46.20;;;29.17;;
6306;SDS011;3186;54.062;9.962;2022-09-09T04:53:25;29.53;;;21.47;;
6306;SDS011;3186;54.062;9.962;2022-09-09T04:55:53;29.67;;;20.87;;
6306;SDS011;3186;54.062;9.962;2022-09-09T04:58:41;32.93;;;21.17;;
6306;SDS011;3186;54.062;9.962;2022-09-09T05:01:10;29.80;;;19.77;;
6306;SDS011;3186;54.062;9.962;2022-09-09T05:03:44;32.63;;;20.93;;
6306;SDS011;3186;54.062;9.962;2022-09-09T05:06:15;38.10;;;23.80;;
6306;SDS011;3186;54.062;9.962;2022-09-09T05:08:44;32.90;;;21.30;;
6306;SDS011;3186;54.062;9.962;2022-09-09T05:11:14;34.30;;;21.60;;
6306;SDS011;3186;54.062;9.962;2022-09-09T05:13:46;50.33;;;30.83;;
6306;SDS011;3186;54.062;9.962;2022-09-09T05:16:13;35.47;;;22.50;;
6306;SDS011;3186;54.062;9.962;2022-09-09T05:18:39;33.17;;;22.30;;
6306;SDS011;3186;54.062;9.962;2022-09-09T05:21:07;45.27;;;28.87;;
6306;SDS011;3186;54.062;9.962;2022-09-09T05:23:33;45.50;;;28.77;;
6306;SDS011;3186;54.062;9.962;2022-09-09T05:26:00;40.43;;;26.23;;
6306;SDS011;3186;54.062;9.962;2022-09-09T05:28:28;34.77;;;23.33;;
6306;SDS011;3186;54.062;9.962;2022-09-09T05:30:59;47.57;;;28.07;;
6306;SDS011;3186;54.062;9.962;2022-09-09T05:33:32;35.47;;;24.40;;
6306;SDS011;3186;54.062;9.962;2022-09-09T05:36:03;31.10;;;22.13;;
6306;SDS011;3186;54.062;9.962;2022-09-09T05:38:30;34.37;;;22.80;;
6306;SDS011;3186;54.062;9.962;2022-09-09T05:40:59;32.97;;;21.80;;
6306;SDS011;3186;54.062;9.962;2022-09-09T05:43:25;31.97;;;21.60;;
6306;SDS011;3186;54.062;9.962;2022-09-09T05:46:05;34.40;;;21.90;;
6306;SDS011;3186;54.062;9.962;2022-09-09T05:48:34;31.83;;;20.47;;
6306;SDS011;3186;54.062;9.962;2022-09-09T05:51:04;31.67;;;20.77;;
6306;SDS011;3186;54.062;9.962;2022-09-09T05:53:35;42.60;;;28.00;;
6306;SDS011;3186;54.062;9.962;2022-09-09T05:56:03;32.47;;;22.27;;
6306;SDS011;3186;54.062;9.962;2022-09-09T05:58:33;29.23;;;20.30;;
6306;SDS011;3186;54.062;9.962;2022-09-09T06:01:02;30.63;;;21.60;;
6306;SDS011;3186;54.062;9.962;2022-09-09T06:03:36;31.50;;;22.00;;
6306;SDS011;3186;54.062;9.962;2022-09-09T06:06:04;30.30;;;20.90;;
6306;SDS011;3186;54.062;9.962;2022-09-09T06:08:35;28.07;;;20.13;;
6306;SDS011;3186;54.062;9.962;2022-09-09T06:11:05;32.83;;;22.27;;
6306;SDS011;3186;54.062;9.962;2022-09-09T06:13:39;25.20;;;19.50;;
6306;SDS011;3186;54.062;9.962;2022-09-09T06:16:06;28.67;;;20.07;;
6306;SDS011;3186;54.062;9.962;2022-09-09T06:18:44;29.47;;;18.93;;
6306;SDS011;3186;54.062;9.962;2022-09-09T06:21:18;25.03;;;18.80;;
6306;SDS011;3186;54.062;9.962;2022-09-09T06:23:46;28.73;;;19.37;;
6306;SDS011;3186;54.062;9.962;2022-09-09T06:28:45;27.67;;;19.00;;
6306;SDS011;3186;54.062;9.962;2022-09-09T06:31:13;29.57;;;20.40;;
6306;SDS011;3186;54.062;9.962;2022-09-09T06:33:47;28.63;;;19.30;;
6306;SDS011;3186;54.062;9.962;2022-09-09T06:36:25;27.33;;;19.27;;
6306;SDS011;3186;54.062;9.962;2022-09-09T06:38:56;26.73;;;18.60;;
6306;SDS011;3186;54.062;9.962;2022-09-09T06:41:23;28.67;;;20.00;;
6306;SDS011;3186;54.062;9.962;2022-09-09T06:43:51;35.83;;;24.87;;
6306;SDS011;3186;54.062;9.962;2022-09-09T06:46:23;33.77;;;23.23;;
6306;SDS011;3186;54.062;9.962;2022-09-09T06:48:53;30.30;;;20.03;;
6306;SDS011;3186;54.062;9.962;2022-09-09T06:51:28;30.73;;;21.97;;
6306;SDS011;3186;54.062;9.962;2022-09-09T06:53:57;32.70;;;22.57;;
6306;SDS011;3186;54.062;9.962;2022-09-09T06:56:28;26.40;;;19.03;;
6306;SDS011;3186;54.062;9.962;2022-09-09T06:58:58;25.70;;;19.13;;
6306;SDS011;3186;54.062;9.962;2022-09-09T07:01:30;23.03;;;16.87;;
6306;SDS011;3186;54.062;9.962;2022-09-09T07:04:04;29.40;;;20.73;;
6306;SDS011;3186;54.062;9.962;2022-09-09T07:06:34;25.03;;;17.70;;
6306;SDS011;3186;54.062;9.962;2022-09-09T07:09:04;24.00;;;18.43;;
6306;SDS011;3186;54.062;9.962;2022-09-09T07:11:33;29.67;;;21.50;;
6306;SDS011;3186;54.062;9.962;2022-09-09T07:14:03;30.57;;;20.93;;
6306;SDS011;3186;54.062;9.962;2022-09-09T07:16:29;28.63;;;20.37;;
6306;SDS011;3186;54.062;9.962;2022-09-09T07:18:58;29.97;;;20.80;;
6306;SDS011;3186;54.062;9.962;2022-09-09T07:21:25;27.37;;;18.23;;
6306;SDS011;3186;54.062;9.962;2022-09-09T07:23:52;27.63;;;19.87;;
6306;SDS011;3186;54.062;9.962;2022-09-09T07:26:19;25.00;;;19.63;;
6306;SDS011;3186;54.062;9.962;2022-09-09T07:28:47;24.87;;;17.87;;
6306;SDS011;3186;54.062;9.962;2022-09-09T07:31:14;27.30;;;18.13;;
6306;SDS011;3186;54.062;9.962;2022-09-09T07:33:42;25.43;;;18.83;;
6306;SDS011;3186;54.062;9.962;2022-09-09T07:36:13;24.27;;;16.27;;
6306;SDS011;3186;54.062;9.962;2022-09-09T07:38:53;20.47;;;15.43;;
6306;SDS011;3186;54.062;9.962;2022-09-09T07:43:57;18.10;;;12.93;;
6306;SDS011;3186;54.062;9.962;2022-09-09T07:46:25;22.00;;;15.70;;
6306;SDS011;3186;54.062;9.962;2022-09-09T07:48:55;17.63;;;12.63;;
6306;SDS011;3186;54.062;9.962;2022-09-09T07:51:28;20.83;;;15.13;;
6306;SDS011;3186;54.062;9.962;2022-09-09T07:53:58;15.70;;;11.63;;
6306;SDS011;3186;54.062;9.962;2022-09-09T07:56:28;12.63;;;10.50;;
6306;SDS011;3186;54.062;9.962;2022-09-09T07:58:56;15.80;;;11.47;;
6306;SDS011;3186;54.062;9.962;2022-09-09T08:01:25;15.73;;;12.10;;
6306;SDS011;3186;54.062;9.962;2022-09-09T08:04:14;18.13;;;13.10;;
6306;SDS011;3186;54.062;9.962;2022-09-09T08:06:49;15.33;;;11.43;;
6306;SDS011;3186;54.062;9.962;2022-09-09T08:09:19;14.17;;;10.47;;
6306;SDS011;3186;54.062;9.962;2022-09-09T08:11:47;12.83;;;10.67;;
6306;SDS011;3186;54.062;9.962;2022-09-09T08:14:13;14.73;;;10.97;;
6306;SDS011;3186;54.062;9.962;2022-09-09T08:16:42;12.20;;;10.03;;
6306;SDS011;3186;54.062;9.962;2022-09-09T08:19:11;12.43;;;9.70;;
6306;SDS011;3186;54.062;9.962;2022-09-09T08:21:41;12.73;;;9.97;;
6306;SDS011;3186;54.062;9.962;2022-09-09T08:24:09;11.80;;;10.17;;
6306;SDS011;3186;54.062;9.962;2022-09-09T08:26:46;13.17;;;9.17;;
6306;SDS011;3186;54.062;9.962;2022-09-09T08:29:20;13.47;;;9.17;;
6306;SDS011;3186;54.062;9.962;2022-09-09T08:31:47;11.53;;;9.17;;
6306;SDS011;3186;54.062;9.962;2022-09-09T08:34:15;11.17;;;9.13;;
6306;SDS011;3186;54.062;9.962;2022-09-09T08:36:43;9.07;;;6.83;;
6306;SDS011;3186;54.062;9.962;2022-09-09T08:39:11;8.70;;;7.80;;
6306;SDS011;3186;54.062;9.962;2022-09-09T08:52:00;11.13;;;8.33;;
6306;SDS011;3186;54.062;9.962;2022-09-09T08:54:31;9.03;;;6.90;;
6306;SDS011;3186;54.062;9.962;2022-09-09T08:57:00;10.37;;;6.47;;
6306;SDS011;3186;54.062;9.962;2022-09-09T08:59:26;8.73;;;6.07;;
6306;SDS011;3186;54.062;9.962;2022-09-09T09:04:36;8.83;;;6.60;;
6306;SDS011;3186;54.062;9.962;2022-09-09T09:10:25;7.33;;;5.70;;
6306;SDS011;3186;54.062;9.962;2022-09-09T09:12:57;9.43;;;5.93;;
6306;SDS011;3186;54.062;9.962;2022-09-09T09:15:26;5.43;;;4.60;;
6306;SDS011;3186;54.062;9.962;2022-09-09T09:18:04;6.63;;;5.67;;
6306;SDS011;3186;54.062;9.962;2022-09-09T09:20:34;5.33;;;4.30;;
6306;SDS011;3186;54.062;9.962;2022-09-09T09:23:09;6.70;;;5.50;;
6306;SDS011;3186;54.062;9.962;2022-09-09T09:25:44;9.53;;;6.20;;
6306;SDS011;3186;54.062;9.962;2022-09-09T09:28:16;6.73;;;5.43;;
6306;SDS011;3186;54.062;9.962;2022-09-09T09:33:44;7.30;;;5.20;;
6306;SDS011;3186;54.062;9.962;2022-09-09T09:36:14;6.90;;;5.30;;
6306;SDS011;3186;54.062;9.962;2022-09-09T09:38:55;6.17;;;4.60;;
6306;SDS011;3186;54.062;9.962;2022-09-09T09:41:31;5.80;;;4.40;;
6306;SDS011;3186;54.062;9.962;2022-09-09T09:44:04;7.20;;;4.47;;
6306;SDS011;3186;54.062;9.962;2022-09-09T09:46:46;5.60;;;3.67;;
6306;SDS011;3186;54.062;9.962;2022-09-09T09:49:13;4.67;;;3.00;;
6306;SDS011;3186;54.062;9.962;2022-09-09T09:51:39;4.63;;;3.17;;
6306;SDS011;3186;54.062;9.962;2022-09-09T09:54:21;4.07;;;3.03;;
6306;SDS011;3186;54.062;9.962;2022-09-09T09:56:55;3.43;;;3.00;;
6306;SDS011;3186;54.062;9.962;2022-09-09T09:59:33;3.37;;;3.07;;
6306;SDS011;3186;54.062;9.962;2022-09-09T10:05:03;3.27;;;2.90;;
6306;SDS011;3186;54.062;9.962;2022-09-09T10:07:33;4.83;;;3.33;;
6306;SDS011;3186;54.062;9.962;2022-09-09T10:09:59;3.57;;;2.70;;
6306;SDS011;3186;54.062;9.962;2022-09-09T10:29:26;2.70;;;1.70;;
6306;SDS011;3186;54.062;9.962;2022-09-09T10:40:31;3.97;;;1.53;;
6306;SDS011;3186;54.062;9.962;2022-09-09T10:43:12;3.00;;;1.50;;
6306;SDS011;3186;54.062;9.962;2022-09-09T10:45:48;3.30;;;2.13;;
6306;SDS011;3186;54.062;9.962;2022-09-09T10:56:55;3.77;;;1.20;;
6306;SDS011;3186;54.062;9.962;2022-09-09T10:59:27;1.97;;;1.40;;
6306;SDS011;3186;54.062;9.962;2022-09-09T11:02:03;2.03;;;1.10;;
6306;SDS011;3186;54.062;9.962;2022-09-09T11:07:07;1.80;;;1.03;;
6306;SDS011;3186;54.062;9.962;2022-09-09T11:09:41;1.63;;;1.00;;
6306;SDS011;3186;54.062;9.962;2022-09-09T11:12:15;1.33;;;1.10;;
6306;SDS011;3186;54.062;9.962;2022-09-09T11:14:45;2.97;;;1.30;;
6306;SDS011;3186;54.062;9.962;2022-09-09T11:17:18;2.10;;;1.00;;
6306;SDS011;3186;54.062;9.962;2022-09-09T11:20:11;2.73;;;1.30;;
6306;SDS011;3186;54.062;9.962;2022-09-09T11:25:42;1.20;;;1.00;;
6306;SDS011;3186;54.062;9.962;2022-09-09T11:28:20;2.00;;;1.30;;
6306;SDS011;3186;54.062;9.962;2022-09-09T11:36:40;2.57;;;1.30;;
6306;SDS011;3186;54.062;9.962;2022-09-09T11:42:04;1.87;;;1.00;;
6306;SDS011;3186;54.062;9.962;2022-09-09T11:44:45;1.13;;;1.03;;
6306;SDS011;3186;54.062;9.962;2022-09-09T11:52:41;4.07;;;1.40;;
6306;SDS011;3186;54.062;9.962;2022-09-09T11:55:11;3.53;;;1.40;;
6306;SDS011;3186;54.062;9.962;2022-09-09T11:57:56;1.90;;;1.30;;
6306;SDS011;3186;54.062;9.962;2022-09-09T12:00:31;3.07;;;1.30;;
6306;SDS011;3186;54.062;9.962;2022-09-09T12:02:58;1.60;;;1.03;;
6306;SDS011;3186;54.062;9.962;2022-09-09T12:05:24;2.10;;;1.03;;
6306;SDS011;3186;54.062;9.962;2022-09-09T12:08:11;2.97;;;1.30;;
6306;SDS011;3186;54.062;9.962;2022-09-09T12:10:51;2.20;;;1.00;;
6306;SDS011;3186;54.062;9.962;2022-09-09T12:13:20;2.23;;;1.10;;
6306;SDS011;3186;54.062;9.962;2022-09-09T12:15:55;4.80;;;1.50;;
6306;SDS011;3186;54.062;9.962;2022-09-09T12:23:43;2.30;;;1.30;;
6306;SDS011;3186;54.062;9.962;2022-09-09T12:26:22;2.13;;;1.27;;
6306;SDS011;3186;54.062;9.962;2022-09-09T12:31:55;1.27;;;1.07;;
6306;SDS011;3186;54.062;9.962;2022-09-09T12:34:44;1.53;;;1.00;;
6306;SDS011;3186;54.062;9.962;2022-09-09T12:37:29;2.77;;;1.10;;
6306;SDS011;3186;54.062;9.962;2022-09-09T12:40:02;1.80;;;1.03;;
6306;SDS011;3186;54.062;9.962;2022-09-09T12:42:29;2.03;;;1.00;;
6306;SDS011;3186;54.062;9.962;2022-09-09T12:45:03;2.67;;;1.20;;
6306;SDS011;3186;54.062;9.962;2022-09-09T12:47:50;2.37;;;1.10;;
6306;SDS011;3186;54.062;9.962;2022-09-09T12:50:21;1.43;;;0.97;;
6306;SDS011;3186;54.062;9.962;2022-09-09T12:52:51;2.47;;;1.00;;
6306;SDS011;3186;54.062;9.962;2022-09-09T12:55:31;1.00;;;0.70;;
6306;SDS011;3186;54.062;9.962;2022-09-09T12:58:03;1.47;;;0.90;;
6306;SDS011;3186;54.062;9.962;2022-09-09T13:00:31;5.53;;;1.00;;
6306;SDS011;3186;54.062;9.962;2022-09-09T13:03:00;1.40;;;1.07;;
6306;SDS011;3186;54.062;9.962;2022-09-09T13:05:37;2.13;;;1.00;;
6306;SDS011;3186;54.062;9.962;2022-09-09T13:08:08;2.00;;;1.07;;
6306;SDS011;3186;54.062;9.962;2022-09-09T13:10:40;1.17;;;0.87;;
6306;SDS011;3186;54.062;9.962;2022-09-09T13:13:17;2.30;;;1.00;;
6306;SDS011;3186;54.062;9.962;2022-09-09T13:16:03;1.63;;;1.10;;
6306;SDS011;3186;54.062;9.962;2022-09-09T13:18:37;3.20;;;0.93;;
6306;SDS011;3186;54.062;9.962;2022-09-09T13:21:07;2.43;;;1.10;;
6306;SDS011;3186;54.062;9.962;2022-09-09T13:23:34;4.47;;;2.17;;
6306;SDS011;3186;54.062;9.962;2022-09-09T13:26:02;2.67;;;1.10;;
6306;SDS011;3186;54.062;9.962;2022-09-09T13:28:49;3.10;;;0.97;;
6306;SDS011;3186;54.062;9.962;2022-09-09T13:31:22;3.53;;;1.23;;
6306;SDS011;3186;54.062;9.962;2022-09-09T13:33:53;2.17;;;1.00;;
6306;SDS011;3186;54.062;9.962;2022-09-09T13:36:27;3.30;;;0.90;;
6306;SDS011;3186;54.062;9.962;2022-09-09T13:38:59;0.83;;;0.77;;
6306;SDS011;3186;54.062;9.962;2022-09-09T13:41:33;1.80;;;1.10;;
6306;SDS011;3186;54.062;9.962;2022-09-09T13:47:17;1.90;;;0.90;;
6306;SDS011;3186;54.062;9.962;2022-09-09T13:49:45;2.00;;;0.80;;
6306;SDS011;3186;54.062;9.962;2022-09-09T13:52:12;3.23;;;1.33;;
6306;SDS011;3186;54.062;9.962;2022-09-09T13:54:39;1.57;;;1.00;;
6306;SDS011;3186;54.062;9.962;2022-09-09T13:57:12;1.87;;;1.10;;
6306;SDS011;3186;54.062;9.962;2022-09-09T13:59:47;1.97;;;1.17;;
6306;SDS011;3186;54.062;9.962;2022-09-09T14:02:14;2.50;;;1.30;;
6306;SDS011;3186;54.062;9.962;2022-09-09T14:04:42;2.87;;;0.90;;
6306;SDS011;3186;54.062;9.962;2022-09-09T14:07:11;2.10;;;1.10;;
6306;SDS011;3186;54.062;9.962;2022-09-09T14:09:39;2.35;;;1.02;;
6306;SDS011;3186;54.062;9.962;2022-09-09T14:12:08;3.67;;;1.20;;
6306;SDS011;3186;54.062;9.962;2022-09-09T14:14:39;3.03;;;1.10;;
6306;SDS011;3186;54.062;9.962;2022-09-09T14:17:04;3.00;;;1.30;;
6306;SDS011;3186;54.062;9.962;2022-09-09T14:19:31;4.40;;;1.50;;
6306;SDS011;3186;54.062;9.962;2022-09-09T14:21:57;1.60;;;1.10;;
6306;SDS011;3186;54.062;9.962;2022-09-09T14:24:23;1.93;;;1.17;;
6306;SDS011;3186;54.062;9.962;2022-09-09T14:26:50;2.83;;;1.20;;
6306;SDS011;3186;54.062;9.962;2022-09-09T14:29:16;2.73;;;1.30;;
6306;SDS011;3186;54.062;9.962;2022-09-09T14:31:42;3.00;;;1.47;;
6306;SDS011;3186;54.062;9.962;2022-09-09T14:34:08;2.87;;;1.20;;
6306;SDS011;3186;54.062;9.962;2022-09-09T14:36:36;1.57;;;1.30;;
6306;SDS011;3186;54.062;9.962;2022-09-09T14:39:03;1.70;;;1.10;;
6306;SDS011;3186;54.062;9.962;2022-09-09T14:41:29;3.03;;;1.50;;
6306;SDS011;3186;54.062;9.962;2022-09-09T14:43:55;2.50;;;1.40;;
6306;SDS011;3186;54.062;9.962;2022-09-09T14:46:22;2.07;;;0.97;;
6306;SDS011;3186;54.062;9.962;2022-09-09T14:48:48;3.07;;;1.10;;
6306;SDS011;3186;54.062;9.962;2022-09-09T14:51:15;2.10;;;1.27;;
6306;SDS011;3186;54.062;9.962;2022-09-09T14:53:50;1.37;;;1.20;;
6306;SDS011;3186;54.062;9.962;2022-09-09T14:56:18;1.30;;;0.70;;
6306;SDS011;3186;54.062;9.962;2022-09-09T14:58:47;2.33;;;0.90;;
6306;SDS011;3186;54.062;9.962;2022-09-09T15:01:14;1.33;;;0.90;;
6306;SDS011;3186;54.062;9.962;2022-09-09T15:03:42;3.00;;;0.80;;
6306;SDS011;3186;54.062;9.962;2022-09-09T15:06:14;0.90;;;0.70;;
6306;SDS011;3186;54.062;9.962;2022-09-09T15:08:40;0.73;;;0.63;;
6306;SDS011;3186;54.062;9.962;2022-09-09T15:11:09;0.70;;;0.70;;
6306;SDS011;3186;54.062;9.962;2022-09-09T15:13:35;2.50;;;0.70;;
6306;SDS011;3186;54.062;9.962;2022-09-09T15:16:03;1.00;;;0.73;;
6306;SDS011;3186;54.062;9.962;2022-09-09T15:18:31;1.17;;;0.80;;
6306;SDS011;3186;54.062;9.962;2022-09-09T15:20:58;2.00;;;0.83;;
6306;SDS011;3186;54.062;9.962;2022-09-09T15:23:26;1.07;;;0.80;;
6306;SDS011;3186;54.062;9.962;2022-09-09T15:25:53;2.83;;;1.10;;
6306;SDS011;3186;54.062;9.962;2022-09-09T15:28:20;2.07;;;1.10;;
6306;SDS011;3186;54.062;9.962;2022-09-09T15:30:47;3.73;;;1.43;;
6306;SDS011;3186;54.062;9.962;2022-09-09T15:33:17;2.37;;;1.20;;
6306;SDS011;3186;54.062;9.962;2022-09-09T15:35:43;5.87;;;1.60;;
6306;SDS011;3186;54.062;9.962;2022-09-09T15:38:10;2.70;;;1.53;;
6306;SDS011;3186;54.062;9.962;2022-09-09T15:40:38;5.40;;;1.70;;
6306;SDS011;3186;54.062;9.962;2022-09-09T15:43:05;2.37;;;1.10;;
6306;SDS011;3186;54.062;9.962;2022-09-09T15:45:32;4.67;;;1.70;;
6306;SDS011;3186;54.062;9.962;2022-09-09T15:48:01;4.67;;;1.57;;
6306;SDS011;3186;54.062;9.962;2022-09-09T15:50:28;3.13;;;1.30;;
6306;SDS011;3186;54.062;9.962;2022-09-09T15:52:56;4.70;;;1.40;;
6306;SDS011;3186;54.062;9.962;2022-09-09T15:55:22;2.63;;;1.30;;
6306;SDS011;3186;54.062;9.962;2022-09-09T15:57:51;3.07;;;1.30;;
6306;SDS011;3186;54.062;9.962;2022-09-09T16:00:20;3.07;;;1.53;;
6306;SDS011;3186;54.062;9.962;2022-09-09T16:02:47;1.43;;;1.30;;
6306;SDS011;3186;54.062;9.962;2022-09-09T16:05:13;2.73;;;1.43;;
6306;SDS011;3186;54.062;9.962;2022-09-09T16:07:39;2.23;;;1.43;;
6306;SDS011;3186;54.062;9.962;2022-09-09T16:10:08;2.73;;;1.43;;
6306;SDS011;3186;54.062;9.962;2022-09-09T16:12:34;2.87;;;1.70;;
6306;SDS011;3186;54.062;9.962;2022-09-09T16:15:00;4.10;;;1.73;;
6306;SDS011;3186;54.062;9.962;2022-09-09T16:17:26;4.37;;;1.53;;
6306;SDS011;3186;54.062;9.962;2022-09-09T16:19:52;2.77;;;1.63;;
6306;SDS011;3186;54.062;9.962;2022-09-09T16:22:19;2.43;;;1.50;;
6306;SDS011;3186;54.062;9.962;2022-09-09T16:24:45;2.77;;;1.87;;
6306;SDS011;3186;54.062;9.962;2022-09-09T16:27:11;3.30;;;1.83;;
6306;SDS011;3186;54.062;9.962;2022-09-09T16:29:37;2.77;;;1.40;;
6306;SDS011;3186;54.062;9.962;2022-09-09T16:32:03;3.40;;;1.80;;
6306;SDS011;3186;54.062;9.962;2022-09-09T16:34:29;4.43;;;2.00;;
6306;SDS011;3186;54.062;9.962;2022-09-09T16:36:54;5.37;;;2.27;;
6306;SDS011;3186;54.062;9.962;2022-09-09T16:39:21;2.00;;;1.73;;
6306;SDS011;3186;54.062;9.962;2022-09-09T16:41:47;3.57;;;2.00;;
6306;SDS011;3186;54.062;9.962;2022-09-09T16:44:14;2.87;;;1.97;;
6306;SDS011;3186;54.062;9.962;2022-09-09T16:46:42;2.47;;;2.20;;
6306;SDS011;3186;54.062;9.962;2022-09-09T16:49:11;5.73;;;2.40;;
6306;SDS011;3186;54.062;9.962;2022-09-09T16:51:48;4.47;;;2.93;;
6306;SDS011;3186;54.062;9.962;2022-09-09T16:54:18;4.90;;;2.67;;
6306;SDS011;3186;54.062;9.962;2022-09-09T16:56:46;4.67;;;2.60;;
6306;SDS011;3186;54.062;9.962;2022-09-09T16:59:17;2.83;;;2.50;;
6306;SDS011;3186;54.062;9.962;2022-09-09T17:01:46;3.37;;;2.33;;
6306;SDS011;3186;54.062;9.962;2022-09-09T17:04:14;3.07;;;2.63;;
6306;SDS011;3186;54.062;9.962;2022-09-09T17:06:46;3.30;;;2.60;;
6306;SDS011;3186;54.062;9.962;2022-09-09T17:09:16;4.30;;;2.70;;
6306;SDS011;3186;54.062;9.962;2022-09-09T17:11:42;3.80;;;2.33;;
6306;SDS011;3186;54.062;9.962;2022-09-09T17:14:11;2.67;;;2.20;;
6306;SDS011;3186;54.062;9.962;2022-09-09T17:16:39;4.40;;;2.60;;
6306;SDS011;3186;54.062;9.962;2022-09-09T17:19:06;3.50;;;2.50;;
6306;SDS011;3186;54.062;9.962;2022-09-09T17:21:33;2.57;;;2.20;;
6306;SDS011;3186;54.062;9.962;2022-09-09T17:23:59;3.30;;;2.10;;
6306;SDS011;3186;54.062;9.962;2022-09-09T17:26:26;2.33;;;2.10;;
6306;SDS011;3186;54.062;9.962;2022-09-09T17:28:54;2.60;;;1.80;;
6306;SDS011;3186;54.062;9.962;2022-09-09T17:31:23;3.53;;;2.00;;